Knight Air

Knight Air knights of the virtual airways



 METAR AND TAF INFORMATION
METAR FOR LTBS
ADDS - METARS form results

(0036 UTC 18 August 2019)
Data provider http://aviationweather.gov/metar/data/
 
METAR text: LTBS 180020Z 36016KT CAVOK 28/11 Q1004 NOSIG RMK RWY19 34016KT
Conditions at: LTBS (DALAMAN (COMMUNE, TR) observed 0020 UTC 18 August 2019
Temperature: 28.0°C (82°F)
Dewpoint: 11.0°C (52°F) [RH = 35%]
Pressure (altimeter): 29.65 inches Hg (1004.0 mb)
Winds: from the N (360 degrees) at 18 MPH (16 knots; 8.2 m/s)
Visibility: 6 or more miles (10+ km)
Ceiling: ceiling and visibility are OK
Clouds: unknown
Weather: no significant weather observed at this time

METAR text: LTBS 172350Z 36014KT CAVOK 28/12 Q1004 NOSIG RMK RWY19 35015KT
Conditions at: LTBS (DALAMAN (COMMUNE, TR) observed 2350 UTC 17 August 2019
Temperature: 28.0°C (82°F)
Dewpoint: 12.0°C (54°F) [RH = 37%]
Pressure (altimeter): 29.65 inches Hg (1004.0 mb)
Winds: from the N (360 degrees) at 16 MPH (14 knots; 7.2 m/s)
Visibility: 6 or more miles (10+ km)
Ceiling: ceiling and visibility are OK
Clouds: unknown
Weather: no significant weather observed at this time

Forecast for: LTBS (DALAMAN (COMMUNE, TR)
Text: TAF LTBS 172240Z 1800/1824 35020KT CAVOK
Forecast period: 0000 to 1200 UTC 18 August 2019
Forecast type: FROM: standard forecast or significant change
Winds: from the N (350 degrees) at 23 MPH (20 knots; 10.3 m/s)
Visibility: 6 or more miles 10+ km)
Ceiling: unknown
Clouds: missing
Weather: NSW  (no significant weather)
Text: BECMG 1812/1814 35009KT
Forecast period: 1200 UTC 18 August 2019 to 0000 UTC 19 August 2019
Forecast type: BECOMING: Conditions expected to become as follows by 1400 UTC 18 August 2019
Winds: from the N (350 degrees) at 10 MPH (9 knots; 4.6 m/s)
Visibility: 6 or more miles 10+ km)
Ceiling: unknown
Clouds: missing
Weather: NSW  (no significant weather)

 AIRPORT MAP

 RUNWAY INFORMATION
Runway 01 Runway length 9842 ft Runway width 148 ft
Runway elevation 10 ft Runway displaced threshold 0 ft Runway heading 15
Runway 19 Runway length 9842 ft Runway width 148 ft
Runway elevation 20 ft Runway displaced threshold 0 ft Runway heading 195

 AIRPORT FREQUENCIES
Type APP Name APP Frequency 119.225 MHZ
Type ATIS Name ATIS Frequency 127.35 MHZ
Type GND Name GND Frequency 121.9 MHZ
Type TWR Name TWR Frequency 118.5 MHZ

 AIRPORT NEAR NAVIGATION AIDS
Type TACAN Name Dalaman Frequency 115300 KHZ
Type VOR-DME Name Dalaman Frequency 114700 KHZ
Type NDB Name Dalaman Frequency 346 KHZ